sensor_id;sensor_type;location;lat;lon;timestamp;pressure;altitude;pressure_sealevel;temperature;humidity
4392;BME280;2210;51.938;8.488;2023-09-19T00:02:24;99633.31;;;16.56;100.00
4392;BME280;2210;51.938;8.488;2023-09-19T00:06:36;99628.28;;;16.58;100.00
4392;BME280;2210;51.938;8.488;2023-09-19T00:10:37;99641.81;;;16.46;100.00
4392;BME280;2210;51.938;8.488;2023-09-19T00:14:42;99634.97;;;16.57;100.00
4392;BME280;2210;51.938;8.488;2023-09-19T00:18:46;99648.06;;;16.57;100.00
4392;BME280;2210;51.938;8.488;2023-09-19T00:22:52;99648.13;;;16.51;100.00
4392;BME280;2210;51.938;8.488;2023-09-19T00:26:53;99650.25;;;16.60;100.00
4392;BME280;2210;51.938;8.488;2023-09-19T00:30:57;99657.59;;;16.50;100.00
4392;BME280;2210;51.938;8.488;2023-09-19T00:35:04;99660.69;;;16.49;100.00
4392;BME280;2210;51.938;8.488;2023-09-19T00:39:06;99657.59;;;16.50;100.00
4392;BME280;2210;51.938;8.488;2023-09-19T00:43:06;99669.94;;;16.44;100.00
4392;BME280;2210;51.938;8.488;2023-09-19T00:47:06;99669.44;;;16.37;100.00
4392;BME280;2210;51.938;8.488;2023-09-19T00:51:15;99672.72;;;16.44;100.00
4392;BME280;2210;51.938;8.488;2023-09-19T00:55:29;99671.34;;;16.42;100.00
4392;BME280;2210;51.938;8.488;2023-09-19T00:59:34;99684.50;;;16.36;100.00
4392;BME280;2210;51.938;8.488;2023-09-19T01:03:41;99684.63;;;16.26;100.00
4392;BME280;2210;51.938;8.488;2023-09-19T01:07:42;99680.47;;;16.23;100.00
4392;BME280;2210;51.938;8.488;2023-09-19T01:11:50;99682.38;;;16.28;100.00
4392;BME280;2210;51.938;8.488;2023-09-19T01:20:45;99695.75;;;16.26;100.00
4392;BME280;2210;51.938;8.488;2023-09-19T01:25:05;99701.31;;;16.26;100.00
4392;BME280;2210;51.938;8.488;2023-09-19T01:29:42;99706.88;;;16.26;100.00
4392;BME280;2210;51.938;8.488;2023-09-19T01:34:00;99700.53;;;16.20;100.00
4392;BME280;2210;51.938;8.488;2023-09-19T01:38:01;99712.44;;;16.26;100.00
4392;BME280;2210;51.938;8.488;2023-09-19T01:42:13;99712.91;;;16.33;100.00
4392;BME280;2210;51.938;8.488;2023-09-19T01:46:21;99720.81;;;16.21;100.00
4392;BME280;2210;51.938;8.488;2023-09-19T01:50:35;99727.59;;;16.14;100.00
4392;BME280;2210;51.938;8.488;2023-09-19T01:55:06;99731.38;;;16.24;100.00
4392;BME280;2210;51.938;8.488;2023-09-19T01:59:14;99735.31;;;16.17;100.00
4392;BME280;2210;51.938;8.488;2023-09-19T02:03:16;99737.56;;;16.15;100.00
4392;BME280;2210;51.938;8.488;2023-09-19T02:07:17;99743.06;;;16.21;100.00
4392;BME280;2210;51.938;8.488;2023-09-19T02:11:17;99751.97;;;16.23;100.00
4392;BME280;2210;51.938;8.488;2023-09-19T02:15:18;99758.34;;;16.23;100.00
4392;BME280;2210;51.938;8.488;2023-09-19T02:19:30;99762.72;;;16.05;100.00
4392;BME280;2210;51.938;8.488;2023-09-19T02:23:32;99757.75;;;16.02;100.00
4392;BME280;2210;51.938;8.488;2023-09-19T02:27:39;99760.91;;;15.90;100.00
4392;BME280;2210;51.938;8.488;2023-09-19T02:31:45;99758.91;;;15.96;100.00
4392;BME280;2210;51.938;8.488;2023-09-19T02:35:56;99762.16;;;16.03;100.00
4392;BME280;2210;51.938;8.488;2023-09-19T02:40:00;99754.28;;;15.86;100.00
4392;BME280;2210;51.938;8.488;2023-09-19T02:44:04;99761.25;;;15.83;100.00
4392;BME280;2210;51.938;8.488;2023-09-19T02:48:13;99747.34;;;15.83;100.00
4392;BME280;2210;51.938;8.488;2023-09-19T02:52:15;99750.72;;;15.75;100.00
4392;BME280;2210;51.938;8.488;2023-09-19T02:56:18;99766.63;;;15.70;100.00
4392;BME280;2210;51.938;8.488;2023-09-19T03:00:25;99761.38;;;15.63;100.00
4392;BME280;2210;51.938;8.488;2023-09-19T03:04:25;99768.41;;;15.50;100.00
4392;BME280;2210;51.938;8.488;2023-09-19T03:08:27;99775.91;;;15.55;100.00
4392;BME280;2210;51.938;8.488;2023-09-19T03:12:27;99781.94;;;15.62;100.00
4392;BME280;2210;51.938;8.488;2023-09-19T03:16:28;99785.59;;;15.57;100.00
4392;BME280;2210;51.938;8.488;2023-09-19T03:20:28;99792.59;;;15.49;100.00
4392;BME280;2210;51.938;8.488;2023-09-19T03:24:28;99798.16;;;15.49;100.00
4392;BME280;2210;51.938;8.488;2023-09-19T03:28:29;99809.63;;;15.38;100.00
4392;BME280;2210;51.938;8.488;2023-09-19T03:32:30;99802.06;;;15.43;100.00
4392;BME280;2210;51.938;8.488;2023-09-19T03:36:30;99803.75;;;15.39;100.00
4392;BME280;2210;51.938;8.488;2023-09-19T03:40:31;99801.31;;;15.32;100.00
4392;BME280;2210;51.938;8.488;2023-09-19T03:44:40;99806.00;;;15.37;100.00
4392;BME280;2210;51.938;8.488;2023-09-19T03:48:46;99804.66;;;15.29;100.00
4392;BME280;2210;51.938;8.488;2023-09-19T03:52:50;99800.56;;;15.16;100.00
4392;BME280;2210;51.938;8.488;2023-09-19T03:56:50;99797.72;;;15.27;100.00
4392;BME280;2210;51.938;8.488;2023-09-19T04:00:57;99806.66;;;15.18;100.00
4392;BME280;2210;51.938;8.488;2023-09-19T04:04:58;99809.47;;;15.13;100.00
4392;BME280;2210;51.938;8.488;2023-09-19T04:09:05;99813.94;;;15.09;100.00
4392;BME280;2210;51.938;8.488;2023-09-19T04:13:07;99806.97;;;15.12;100.00
4392;BME280;2210;51.938;8.488;2023-09-19T04:17:16;99801.72;;;15.05;100.00
4392;BME280;2210;51.938;8.488;2023-09-19T04:21:17;99807.56;;;15.09;100.00
4392;BME280;2210;51.938;8.488;2023-09-19T04:25:27;99809.25;;;14.99;100.00
4392;BME280;2210;51.938;8.488;2023-09-19T04:29:31;99823.16;;;14.94;100.00
4392;BME280;2210;51.938;8.488;2023-09-19T04:33:32;99826.81;;;14.84;100.00
4392;BME280;2210;51.938;8.488;2023-09-19T04:37:53;99829.88;;;14.83;100.00
4392;BME280;2210;51.938;8.488;2023-09-19T04:41:57;99831.19;;;14.96;100.00
4392;BME280;2210;51.938;8.488;2023-09-19T04:46:01;99830.13;;;14.87;100.00
4392;BME280;2210;51.938;8.488;2023-09-19T04:50:09;99836.25;;;14.78;100.00
4392;BME280;2210;51.938;8.488;2023-09-19T04:54:13;99847.91;;;14.80;100.00
4392;BME280;2210;51.938;8.488;2023-09-19T04:58:15;99852.09;;;14.67;100.00
4392;BME280;2210;51.938;8.488;2023-09-19T05:02:15;99846.56;;;14.57;100.00
4392;BME280;2210;51.938;8.488;2023-09-19T05:06:15;99867.66;;;14.53;100.00
4392;BME280;2210;51.938;8.488;2023-09-19T05:10:16;99872.66;;;14.66;100.00
4392;BME280;2210;51.938;8.488;2023-09-19T05:14:18;99878.19;;;14.56;100.00
4392;BME280;2210;51.938;8.488;2023-09-19T05:18:25;99865.69;;;14.54;100.00
4392;BME280;2210;51.938;8.488;2023-09-19T05:22:32;99865.69;;;14.59;100.00
4392;BME280;2210;51.938;8.488;2023-09-19T05:26:46;99873.75;;;14.50;100.00
4392;BME280;2210;51.938;8.488;2023-09-19T05:31:05;99888.75;;;14.33;100.00
4392;BME280;2210;51.938;8.488;2023-09-19T05:35:06;99907.31;;;14.28;100.00
4392;BME280;2210;51.938;8.488;2023-09-19T05:39:09;99917.03;;;14.25;100.00
4392;BME280;2210;51.938;8.488;2023-09-19T05:43:13;99917.31;;;14.39;100.00
4392;BME280;2210;51.938;8.488;2023-09-19T05:47:14;99917.84;;;14.36;100.00
4392;BME280;2210;51.938;8.488;2023-09-19T05:51:14;99922.31;;;14.37;100.00
4392;BME280;2210;51.938;8.488;2023-09-19T05:55:15;99931.75;;;14.52;100.00
4392;BME280;2210;51.938;8.488;2023-09-19T05:59:15;99934.78;;;14.55;100.00
4392;BME280;2210;51.938;8.488;2023-09-19T06:03:15;99946.13;;;14.48;100.00
4392;BME280;2210;51.938;8.488;2023-09-19T06:07:20;99941.97;;;14.51;100.00
4392;BME280;2210;51.938;8.488;2023-09-19T06:11:23;99940.63;;;14.64;100.00
4392;BME280;2210;51.938;8.488;2023-09-19T06:15:29;99940.34;;;14.71;100.00
4392;BME280;2210;51.938;8.488;2023-09-19T06:19:35;99930.59;;;14.78;100.00
4392;BME280;2210;51.938;8.488;2023-09-19T06:23:38;99926.72;;;14.84;100.00
4392;BME280;2210;51.938;8.488;2023-09-19T06:27:52;99929.44;;;15.00;100.00
4392;BME280;2210;51.938;8.488;2023-09-19T06:32:00;99933.31;;;15.09;100.00
4392;BME280;2210;51.938;8.488;2023-09-19T06:36:07;99930.53;;;15.14;100.00
4392;BME280;2210;51.938;8.488;2023-09-19T06:40:23;99927.47;;;15.16;100.00
4392;BME280;2210;51.938;8.488;2023-09-19T06:44:24;99934.91;;;15.26;100.00
4392;BME280;2210;51.938;8.488;2023-09-19T06:48:27;99945.50;;;15.18;100.00
4392;BME280;2210;51.938;8.488;2023-09-19T06:52:35;99951.06;;;15.18;100.00
4392;BME280;2210;51.938;8.488;2023-09-19T06:56:45;99949.97;;;15.14;100.00
4392;BME280;2210;51.938;8.488;2023-09-19T07:00:45;99953.84;;;15.08;100.00
4392;BME280;2210;51.938;8.488;2023-09-19T07:04:46;99944.97;;;15.11;100.00
4392;BME280;2210;51.938;8.488;2023-09-19T07:08:46;99947.19;;;15.09;100.00
4392;BME280;2210;51.938;8.488;2023-09-19T07:13:01;99948.28;;;15.13;100.00
4392;BME280;2210;51.938;8.488;2023-09-19T07:17:01;99955.50;;;15.20;100.00
4392;BME280;2210;51.938;8.488;2023-09-19T07:21:09;99963.28;;;15.17;100.00
4392;BME280;2210;51.938;8.488;2023-09-19T07:25:10;99970.22;;;15.20;100.00
4392;BME280;2210;51.938;8.488;2023-09-19T07:29:13;99977.94;;;15.33;100.00
4392;BME280;2210;51.938;8.488;2023-09-19T07:33:14;99981.28;;;15.36;100.00
4392;BME280;2210;51.938;8.488;2023-09-19T07:37:14;99989.84;;;15.49;100.00
4392;BME280;2210;51.938;8.488;2023-09-19T07:41:24;99995.41;;;15.44;100.00
4392;BME280;2210;51.938;8.488;2023-09-19T07:45:25;99984.28;;;15.49;100.00
4392;BME280;2210;51.938;8.488;2023-09-19T07:49:26;99980.66;;;15.54;100.00
4392;BME280;2210;51.938;8.488;2023-09-19T07:53:29;99985.38;;;15.59;100.00
4392;BME280;2210;51.938;8.488;2023-09-19T07:57:45;99983.63;;;15.73;100.00
4392;BME280;2210;51.938;8.488;2023-09-19T08:01:46;99984.19;;;15.80;100.00
4392;BME280;2210;51.938;8.488;2023-09-19T08:05:48;99987.75;;;15.86;100.00
4392;BME280;2210;51.938;8.488;2023-09-19T08:09:49;99979.72;;;15.84;100.00
4392;BME280;2210;51.938;8.488;2023-09-19T08:13:49;99983.53;;;15.94;100.00
4392;BME280;2210;51.938;8.488;2023-09-19T08:17:59;99989.38;;;15.97;100.00
4392;BME280;2210;51.938;8.488;2023-09-19T08:22:02;99985.16;;;16.05;100.00
4392;BME280;2210;51.938;8.488;2023-09-19T08:26:03;99989.53;;;16.16;100.00
4392;BME280;2210;51.938;8.488;2023-09-19T08:30:38;100001.69;;;16.26;100.00
4392;BME280;2210;51.938;8.488;2023-09-19T08:34:40;100004.47;;;16.31;100.00
4392;BME280;2210;51.938;8.488;2023-09-19T08:38:44;99997.22;;;16.30;100.00
4392;BME280;2210;51.938;8.488;2023-09-19T08:42:48;100003.97;;;16.24;100.00
4392;BME280;2210;51.938;8.488;2023-09-19T08:46:55;100005.59;;;16.25;100.00
4392;BME280;2210;51.938;8.488;2023-09-19T08:51:12;100003.56;;;16.35;100.00
4392;BME280;2210;51.938;8.488;2023-09-19T08:55:17;100012.19;;;16.39;100.00
4392;BME280;2210;51.938;8.488;2023-09-19T08:59:38;100007.44;;;16.40;100.00
4392;BME280;2210;51.938;8.488;2023-09-19T09:03:40;100014.94;;;16.44;100.00
4392;BME280;2210;51.938;8.488;2023-09-19T09:07:43;100004.59;;;16.50;100.00
4392;BME280;2210;51.938;8.488;2023-09-19T09:11:44;100017.56;;;16.65;100.00
4392;BME280;2210;51.938;8.488;2023-09-19T09:15:47;100026.72;;;16.65;100.00
4392;BME280;2210;51.938;8.488;2023-09-19T09:20:00;100021.94;;;16.71;100.00
4392;BME280;2210;51.938;8.488;2023-09-19T09:28:45;100003.84;;;16.74;100.00
4392;BME280;2210;51.938;8.488;2023-09-19T09:33:07;100005.22;;;16.76;98.08
4392;BME280;2210;51.938;8.488;2023-09-19T09:37:13;100011.28;;;16.83;98.14
4392;BME280;2210;51.938;8.488;2023-09-19T09:41:15;100011.69;;;17.01;99.90
4392;BME280;2210;51.938;8.488;2023-09-19T09:45:27;100001.91;;;17.03;90.84
4392;BME280;2210;51.938;8.488;2023-09-19T09:49:39;100009.38;;;17.13;93.16
4392;BME280;2210;51.938;8.488;2023-09-19T09:53:39;100001.44;;;17.26;90.96
4392;BME280;2210;51.938;8.488;2023-09-19T09:57:40;100006.41;;;17.29;92.98
4392;BME280;2210;51.938;8.488;2023-09-19T10:01:48;99997.41;;;17.37;94.16
4392;BME280;2210;51.938;8.488;2023-09-19T10:05:53;99992.13;;;17.35;91.17
4392;BME280;2210;51.938;8.488;2023-09-19T10:10:00;99996.03;;;17.34;92.66
4392;BME280;2210;51.938;8.488;2023-09-19T10:14:15;100005.44;;;17.39;92.85
4392;BME280;2210;51.938;8.488;2023-09-19T10:18:36;100004.03;;;17.41;90.03
4392;BME280;2210;51.938;8.488;2023-09-19T10:22:39;100003.06;;;17.51;85.28
4392;BME280;2210;51.938;8.488;2023-09-19T10:26:45;100009.97;;;17.59;85.73
4392;BME280;2210;51.938;8.488;2023-09-19T10:30:47;100004.84;;;17.66;87.38
4392;BME280;2210;51.938;8.488;2023-09-19T10:34:49;100001.47;;;17.69;85.66
4392;BME280;2210;51.938;8.488;2023-09-19T10:38:56;100012.03;;;17.72;83.72
4392;BME280;2210;51.938;8.488;2023-09-19T10:43:04;100013.44;;;17.69;88.90
4392;BME280;2210;51.938;8.488;2023-09-19T10:47:09;100014.47;;;17.79;90.44
4392;BME280;2210;51.938;8.488;2023-09-19T10:51:18;100006.16;;;17.74;86.03
4392;BME280;2210;51.938;8.488;2023-09-19T10:55:39;99993.31;;;17.97;82.53
4392;BME280;2210;51.938;8.488;2023-09-19T11:00:02;99990.78;;;18.00;83.64
4392;BME280;2210;51.938;8.488;2023-09-19T11:04:36;99992.44;;;18.20;84.26
4392;BME280;2210;51.938;8.488;2023-09-19T11:08:58;99991.84;;;18.24;82.02
4392;BME280;2210;51.938;8.488;2023-09-19T11:13:31;99989.41;;;18.36;78.75
4392;BME280;2210;51.938;8.488;2023-09-19T11:17:43;99976.56;;;18.54;77.38
4392;BME280;2210;51.938;8.488;2023-09-19T11:21:53;99979.00;;;18.42;77.15
4392;BME280;2210;51.938;8.488;2023-09-19T11:25:57;99982.91;;;18.41;81.49
4392;BME280;2210;51.938;8.488;2023-09-19T11:30:27;99974.06;;;18.52;77.03
4392;BME280;2210;51.938;8.488;2023-09-19T11:34:44;99976.19;;;18.42;77.73
4392;BME280;2210;51.938;8.488;2023-09-19T11:43:29;99966.34;;;18.30;79.72
4392;BME280;2210;51.938;8.488;2023-09-19T11:47:34;99962.78;;;18.44;80.65
4392;BME280;2210;51.938;8.488;2023-09-19T11:51:45;99959.59;;;18.83;75.79
4392;BME280;2210;51.938;8.488;2023-09-19T11:55:52;99960.53;;;18.79;72.74
4392;BME280;2210;51.938;8.488;2023-09-19T11:59:55;99964.03;;;18.84;75.64
4392;BME280;2210;51.938;8.488;2023-09-19T12:03:58;99973.63;;;18.78;75.79
4392;BME280;2210;51.938;8.488;2023-09-19T12:08:09;99976.69;;;18.63;75.30
4392;BME280;2210;51.938;8.488;2023-09-19T12:12:10;99984.09;;;18.53;76.36
4392;BME280;2210;51.938;8.488;2023-09-19T12:16:14;99979.22;;;18.45;77.39
4392;BME280;2210;51.938;8.488;2023-09-19T12:20:17;99966.94;;;18.46;72.18
4392;BME280;2210;51.938;8.488;2023-09-19T12:24:21;99965.53;;;18.63;71.69
4392;BME280;2210;51.938;8.488;2023-09-19T12:28:28;99954.16;;;18.73;72.18
4392;BME280;2210;51.938;8.488;2023-09-19T12:32:35;99950.25;;;18.74;72.92
4392;BME280;2210;51.938;8.488;2023-09-19T12:36:36;99953.88;;;19.21;70.63
4392;BME280;2210;51.938;8.488;2023-09-19T12:40:42;99936.38;;;19.30;70.24
4392;BME280;2210;51.938;8.488;2023-09-19T12:44:53;99941.06;;;19.34;71.43
4392;BME280;2210;51.938;8.488;2023-09-19T12:49:15;99933.97;;;19.37;70.19
4392;BME280;2210;51.938;8.488;2023-09-19T12:53:29;99927.47;;;19.42;67.14
4392;BME280;2210;51.938;8.488;2023-09-19T12:57:29;99920.34;;;19.49;66.07
4392;BME280;2210;51.938;8.488;2023-09-19T13:01:45;99931.50;;;19.49;68.13
4392;BME280;2210;51.938;8.488;2023-09-19T13:05:48;99927.06;;;19.48;67.50
4392;BME280;2210;51.938;8.488;2023-09-19T13:10:04;99915.56;;;19.50;68.08
4392;BME280;2210;51.938;8.488;2023-09-19T13:18:18;99920.09;;;19.60;66.33
4392;BME280;2210;51.938;8.488;2023-09-19T13:22:45;99903.31;;;19.60;64.42
4392;BME280;2210;51.938;8.488;2023-09-19T13:26:49;99912.97;;;19.53;66.60
4392;BME280;2210;51.938;8.488;2023-09-19T13:31:05;99923.00;;;19.41;69.32
4392;BME280;2210;51.938;8.488;2023-09-19T13:35:11;99911.00;;;19.54;69.17
4392;BME280;2210;51.938;8.488;2023-09-19T13:39:12;99919.47;;;19.49;67.84
4392;BME280;2210;51.938;8.488;2023-09-19T13:43:16;99927.78;;;19.40;70.90
4392;BME280;2210;51.938;8.488;2023-09-19T13:47:16;99906.63;;;19.62;63.84
4392;BME280;2210;51.938;8.488;2023-09-19T13:51:16;99908.28;;;19.63;63.99
4392;BME280;2210;51.938;8.488;2023-09-19T13:55:19;99902.06;;;19.66;68.20
4392;BME280;2210;51.938;8.488;2023-09-19T13:59:22;99908.06;;;19.73;65.59
4392;BME280;2210;51.938;8.488;2023-09-19T14:03:26;99895.44;;;19.62;65.03
4392;BME280;2210;51.938;8.488;2023-09-19T14:07:37;99892.38;;;19.49;65.59
4392;BME280;2210;51.938;8.488;2023-09-19T14:11:43;99896.78;;;19.64;66.36
4392;BME280;2210;51.938;8.488;2023-09-19T14:15:50;99895.00;;;19.82;64.28
4392;BME280;2210;51.938;8.488;2023-09-19T14:19:50;99893.88;;;19.83;65.72
4392;BME280;2210;51.938;8.488;2023-09-19T14:23:51;99896.47;;;19.66;65.50
4392;BME280;2210;51.938;8.488;2023-09-19T14:27:54;99896.38;;;19.71;66.58
4392;BME280;2210;51.938;8.488;2023-09-19T14:32:06;99891.59;;;19.71;67.86
4392;BME280;2210;51.938;8.488;2023-09-19T14:36:08;99891.28;;;19.73;68.67
4392;BME280;2210;51.938;8.488;2023-09-19T14:40:09;99889.00;;;19.75;68.69
4392;BME280;2210;51.938;8.488;2023-09-19T14:44:16;99891.91;;;19.70;68.94
4392;BME280;2210;51.938;8.488;2023-09-19T14:48:19;99892.56;;;19.53;68.82
4392;BME280;2210;51.938;8.488;2023-09-19T14:52:33;99887.91;;;19.48;66.23
4392;BME280;2210;51.938;8.488;2023-09-19T14:56:34;99889.69;;;19.44;66.19
4392;BME280;2210;51.938;8.488;2023-09-19T15:00:34;99896.22;;;19.26;69.73
4392;BME280;2210;51.938;8.488;2023-09-19T15:04:41;99909.38;;;19.25;68.95
4392;BME280;2210;51.938;8.488;2023-09-19T15:08:43;99906.88;;;19.24;69.83
4392;BME280;2210;51.938;8.488;2023-09-19T15:12:47;99911.63;;;19.23;67.26
4392;BME280;2210;51.938;8.488;2023-09-19T15:16:48;99911.53;;;19.14;67.70
4392;BME280;2210;51.938;8.488;2023-09-19T15:20:48;99909.16;;;19.08;68.36
4392;BME280;2210;51.938;8.488;2023-09-19T15:24:52;99910.59;;;19.05;71.39
4392;BME280;2210;51.938;8.488;2023-09-19T15:28:58;99917.63;;;19.02;71.14
4392;BME280;2210;51.938;8.488;2023-09-19T15:33:14;99925.28;;;18.97;72.99
4392;BME280;2210;51.938;8.488;2023-09-19T15:37:17;99918.66;;;18.93;72.65
4392;BME280;2210;51.938;8.488;2023-09-19T15:41:31;99918.44;;;18.89;71.43
4392;BME280;2210;51.938;8.488;2023-09-19T15:45:38;99918.72;;;18.87;69.19
4392;BME280;2210;51.938;8.488;2023-09-19T15:49:38;99918.19;;;18.85;69.82
4392;BME280;2210;51.938;8.488;2023-09-19T15:53:46;99911.78;;;18.85;69.35
4392;BME280;2210;51.938;8.488;2023-09-19T15:57:50;99909.75;;;18.91;69.19
4392;BME280;2210;51.938;8.488;2023-09-19T16:01:52;99906.97;;;18.91;68.53
4392;BME280;2210;51.938;8.488;2023-09-19T16:05:52;99913.16;;;18.87;69.65
4392;BME280;2210;51.938;8.488;2023-09-19T16:09:53;99916.34;;;18.81;68.86
4392;BME280;2210;51.938;8.488;2023-09-19T16:13:59;99902.16;;;18.77;69.61
4392;BME280;2210;51.938;8.488;2023-09-19T16:18:13;99907.03;;;18.85;69.53
4392;BME280;2210;51.938;8.488;2023-09-19T16:22:16;99912.31;;;18.87;67.50
4392;BME280;2210;51.938;8.488;2023-09-19T16:26:17;99910.53;;;18.77;70.95
4392;BME280;2210;51.938;8.488;2023-09-19T16:30:21;99912.59;;;18.71;69.97
4392;BME280;2210;51.938;8.488;2023-09-19T16:34:21;99916.31;;;18.67;70.22
4392;BME280;2210;51.938;8.488;2023-09-19T16:38:28;99908.41;;;18.55;70.55
4392;BME280;2210;51.938;8.488;2023-09-19T16:42:29;99902.03;;;18.54;70.24
4392;BME280;2210;51.938;8.488;2023-09-19T16:46:30;99906.03;;;18.48;70.05
4392;BME280;2210;51.938;8.488;2023-09-19T16:50:33;99911.19;;;18.41;70.52
4392;BME280;2210;51.938;8.488;2023-09-19T16:54:37;99902.81;;;18.41;71.19
4392;BME280;2210;51.938;8.488;2023-09-19T16:58:38;99905.69;;;18.36;71.00
4392;BME280;2210;51.938;8.488;2023-09-19T17:02:42;99916.94;;;18.31;72.06
4392;BME280;2210;51.938;8.488;2023-09-19T17:06:42;99918.81;;;18.35;71.59
4392;BME280;2210;51.938;8.488;2023-09-19T17:10:49;99918.81;;;18.35;71.49
4392;BME280;2210;51.938;8.488;2023-09-19T17:14:49;99915.25;;;18.30;72.15
4392;BME280;2210;51.938;8.488;2023-09-19T17:18:59;99919.53;;;18.27;72.12
4392;BME280;2210;51.938;8.488;2023-09-19T17:23:03;99927.34;;;18.25;72.70
4392;BME280;2210;51.938;8.488;2023-09-19T17:27:04;99927.03;;;18.27;72.77
4392;BME280;2210;51.938;8.488;2023-09-19T17:35:31;99926.41;;;18.30;71.72
4392;BME280;2210;51.938;8.488;2023-09-19T17:39:31;99924.47;;;18.30;71.76
4392;BME280;2210;51.938;8.488;2023-09-19T17:43:32;99923.13;;;18.28;72.86
4392;BME280;2210;51.938;8.488;2023-09-19T17:47:41;99912.56;;;18.25;72.92
4392;BME280;2210;51.938;8.488;2023-09-19T17:51:44;99924.88;;;18.24;72.58
4392;BME280;2210;51.938;8.488;2023-09-19T17:55:45;99921.25;;;18.23;72.49
4392;BME280;2210;51.938;8.488;2023-09-19T17:59:46;99915.75;;;18.18;73.51
4392;BME280;2210;51.938;8.488;2023-09-19T18:03:48;99928.28;;;18.20;73.47
4392;BME280;2210;51.938;8.488;2023-09-19T18:07:57;99918.75;;;18.22;73.91
4392;BME280;2210;51.938;8.488;2023-09-19T18:12:06;99925.47;;;18.20;74.67
4392;BME280;2210;51.938;8.488;2023-09-19T18:16:10;99911.59;;;18.15;74.66
4392;BME280;2210;51.938;8.488;2023-09-19T18:20:11;99922.75;;;18.15;73.55
4392;BME280;2210;51.938;8.488;2023-09-19T18:24:15;99918.84;;;18.16;73.52
4392;BME280;2210;51.938;8.488;2023-09-19T18:28:15;99925.56;;;18.15;74.32
4392;BME280;2210;51.938;8.488;2023-09-19T18:32:15;99921.09;;;18.14;74.30
4392;BME280;2210;51.938;8.488;2023-09-19T18:36:15;99927.28;;;18.11;74.50
4392;BME280;2210;51.938;8.488;2023-09-19T18:40:16;99922.03;;;18.10;74.02
4392;BME280;2210;51.938;8.488;2023-09-19T18:44:35;99920.34;;;18.09;73.95
4392;BME280;2210;51.938;8.488;2023-09-19T18:48:46;99929.53;;;18.09;74.77
4392;BME280;2210;51.938;8.488;2023-09-19T18:52:47;99922.03;;;18.10;74.25
4392;BME280;2210;51.938;8.488;2023-09-19T18:56:47;99926.75;;;18.09;73.62
4392;BME280;2210;51.938;8.488;2023-09-19T19:00:47;99929.53;;;18.09;73.17
4392;BME280;2210;51.938;8.488;2023-09-19T19:04:53;99923.97;;;18.09;72.76
4392;BME280;2210;51.938;8.488;2023-09-19T19:08:54;99923.97;;;18.09;72.61
4392;BME280;2210;51.938;8.488;2023-09-19T19:13:00;99931.81;;;18.07;73.25
4392;BME280;2210;51.938;8.488;2023-09-19T19:17:04;99928.78;;;18.03;73.92
4392;BME280;2210;51.938;8.488;2023-09-19T19:21:08;99930.78;;;18.03;73.24
4392;BME280;2210;51.938;8.488;2023-09-19T19:25:28;99929.91;;;18.02;73.05
4392;BME280;2210;51.938;8.488;2023-09-19T19:29:28;99926.94;;;17.99;73.74
4392;BME280;2210;51.938;8.488;2023-09-19T19:33:31;99929.72;;;17.99;73.30
4392;BME280;2210;51.938;8.488;2023-09-19T19:37:32;99931.06;;;18.01;73.25
4392;BME280;2210;51.938;8.488;2023-09-19T19:41:34;99931.34;;;18.00;73.23
4392;BME280;2210;51.938;8.488;2023-09-19T19:45:53;99931.34;;;18.00;73.32
4392;BME280;2210;51.938;8.488;2023-09-19T19:49:54;99940.88;;;17.99;72.64
4392;BME280;2210;51.938;8.488;2023-09-19T19:54:03;99936.13;;;17.99;73.14
4392;BME280;2210;51.938;8.488;2023-09-19T19:58:07;99942.31;;;17.96;74.44
4392;BME280;2210;51.938;8.488;2023-09-19T20:02:10;99942.06;;;17.93;74.74
4392;BME280;2210;51.938;8.488;2023-09-19T20:06:13;99940.69;;;17.90;74.45
4392;BME280;2210;51.938;8.488;2023-09-19T20:10:18;99946.88;;;17.87;74.47
4392;BME280;2210;51.938;8.488;2023-09-19T20:14:25;99934.34;;;17.84;74.52
4392;BME280;2210;51.938;8.488;2023-09-19T20:18:28;99935.84;;;17.77;75.51
4392;BME280;2210;51.938;8.488;2023-09-19T20:22:31;99934.63;;;17.64;77.74
4392;BME280;2210;51.938;8.488;2023-09-19T20:26:33;99939.09;;;17.65;77.37
4392;BME280;2210;51.938;8.488;2023-09-19T20:30:38;99944.13;;;17.63;78.39
4392;BME280;2210;51.938;8.488;2023-09-19T20:34:40;99940.22;;;17.64;77.64
4392;BME280;2210;51.938;8.488;2023-09-19T20:38:44;99940.22;;;17.64;77.88
4392;BME280;2210;51.938;8.488;2023-09-19T20:42:45;99935.25;;;17.61;78.07
4392;BME280;2210;51.938;8.488;2023-09-19T20:46:57;99938.53;;;17.63;78.51
4392;BME280;2210;51.938;8.488;2023-09-19T20:51:11;99934.63;;;17.64;79.34
4392;BME280;2210;51.938;8.488;2023-09-19T20:55:17;99941.94;;;17.60;79.68
4392;BME280;2210;51.938;8.488;2023-09-19T20:59:18;99938.84;;;17.61;79.88
4392;BME280;2210;51.938;8.488;2023-09-19T21:03:18;99938.31;;;17.59;80.50
4392;BME280;2210;51.938;8.488;2023-09-19T21:07:25;99939.22;;;17.55;80.40
4392;BME280;2210;51.938;8.488;2023-09-19T21:11:35;99942.16;;;17.63;81.01
4392;BME280;2210;51.938;8.488;2023-09-19T21:15:41;99942.59;;;17.51;81.20
4392;BME280;2210;51.938;8.488;2023-09-19T21:19:41;99948.41;;;17.55;80.76
4392;BME280;2210;51.938;8.488;2023-09-19T21:23:44;99945.34;;;17.57;81.43
4392;BME280;2210;51.938;8.488;2023-09-19T21:27:45;99950.59;;;17.58;80.05
4392;BME280;2210;51.938;8.488;2023-09-19T21:31:46;99950.59;;;17.58;81.22
4392;BME280;2210;51.938;8.488;2023-09-19T21:35:47;99942.47;;;17.62;80.21
4392;BME280;2210;51.938;8.488;2023-09-19T21:39:50;99946.41;;;17.61;80.33
4392;BME280;2210;51.938;8.488;2023-09-19T21:44:06;99943.81;;;17.64;81.29
4392;BME280;2210;51.938;8.488;2023-09-19T21:48:06;99943.81;;;17.64;81.51
4392;BME280;2210;51.938;8.488;2023-09-19T21:52:11;99946.31;;;17.66;80.03
4392;BME280;2210;51.938;8.488;2023-09-19T21:56:11;99943.22;;;17.67;79.90
4392;BME280;2210;51.938;8.488;2023-09-19T22:00:18;99939.84;;;17.70;80.25
4392;BME280;2210;51.938;8.488;2023-09-19T22:04:33;99948.28;;;17.65;80.09
4392;BME280;2210;51.938;8.488;2023-09-19T22:08:35;99943.50;;;17.66;81.15
4392;BME280;2210;51.938;8.488;2023-09-19T22:12:45;99942.63;;;17.70;80.09
4392;BME280;2210;51.938;8.488;2023-09-19T22:16:45;99936.22;;;17.70;80.96
4392;BME280;2210;51.938;8.488;2023-09-19T22:21:00;99929.00;;;17.69;81.25
4392;BME280;2210;51.938;8.488;2023-09-19T22:25:23;99929.75;;;17.75;81.80
4392;BME280;2210;51.938;8.488;2023-09-19T22:29:30;99921.69;;;17.73;81.65
4392;BME280;2210;51.938;8.488;2023-09-19T22:33:33;99930.38;;;17.72;82.38